sensor_id;sensor_type;location;lat;lon;timestamp;pressure;altitude;pressure_sealevel;temperature;humidity
69784;BME280;57054;51.978;4.498;2023-08-08T00:01:43;101448.28;;;15.88;97.33
69784;BME280;57054;51.978;4.498;2023-08-08T00:04:09;101457.09;;;15.88;97.23
69784;BME280;57054;51.978;4.498;2023-08-08T00:06:35;101445.66;;;15.88;97.52
69784;BME280;57054;51.978;4.498;2023-08-08T00:09:01;101445.75;;;15.86;97.41
69784;BME280;57054;51.978;4.498;2023-08-08T00:11:26;101454.44;;;15.88;97.32
69784;BME280;57054;51.978;4.498;2023-08-08T00:13:52;101453.56;;;15.88;97.17
69784;BME280;57054;51.978;4.498;2023-08-08T00:16:17;101449.16;;;15.88;97.32
69784;BME280;57054;51.978;4.498;2023-08-08T00:18:42;101439.53;;;15.87;97.18
69784;BME280;57054;51.978;4.498;2023-08-08T00:21:09;101453.56;;;15.88;97.16
69784;BME280;57054;51.978;4.498;2023-08-08T00:23:34;101455.28;;;15.89;97.25
69784;BME280;57054;51.978;4.498;2023-08-08T00:26:00;101450.00;;;15.89;97.49
69784;BME280;57054;51.978;4.498;2023-08-08T00:28:25;101442.16;;;15.87;97.44
69784;BME280;57054;51.978;4.498;2023-08-08T00:30:50;101439.44;;;15.89;97.52
69784;BME280;57054;51.978;4.498;2023-08-08T00:33:16;101441.16;;;15.90;97.40
69784;BME280;57054;51.978;4.498;2023-08-08T00:35:42;101445.56;;;15.89;97.54
69784;BME280;57054;51.978;4.498;2023-08-08T00:38:07;101446.44;;;15.90;97.48
69784;BME280;57054;51.978;4.498;2023-08-08T00:40:33;101445.56;;;15.89;97.41
69784;BME280;57054;51.978;4.498;2023-08-08T00:42:58;101445.56;;;15.89;97.36
69784;BME280;57054;51.978;4.498;2023-08-08T00:45:23;101444.72;;;15.89;97.28
69784;BME280;57054;51.978;4.498;2023-08-08T00:47:49;101448.22;;;15.89;97.13
69784;BME280;57054;51.978;4.498;2023-08-08T00:50:15;101445.56;;;15.89;97.20
69784;BME280;57054;51.978;4.498;2023-08-08T00:52:41;101433.31;;;15.88;97.07
69784;BME280;57054;51.978;4.498;2023-08-08T00:55:08;101437.66;;;15.89;97.25
69784;BME280;57054;51.978;4.498;2023-08-08T00:57:34;101433.31;;;15.88;96.96
69784;BME280;57054;51.978;4.498;2023-08-08T01:00:00;101434.31;;;15.86;96.68
69784;BME280;57054;51.978;4.498;2023-08-08T01:05:02;101435.28;;;15.85;96.45
69784;BME280;57054;51.978;4.498;2023-08-08T01:10:15;101441.53;;;15.82;96.05
69784;BME280;57054;51.978;4.498;2023-08-08T01:12:45;101437.22;;;15.81;95.82
69784;BME280;57054;51.978;4.498;2023-08-08T01:15:13;101442.56;;;15.80;95.72
69784;BME280;57054;51.978;4.498;2023-08-08T01:17:39;101440.84;;;15.79;95.68
69784;BME280;57054;51.978;4.498;2023-08-08T01:20:07;101435.75;;;15.76;95.37
69784;BME280;57054;51.978;4.498;2023-08-08T01:22:43;101433.13;;;15.76;95.01
69784;BME280;57054;51.978;4.498;2023-08-08T01:25:10;101435.03;;;15.72;94.74
69784;BME280;57054;51.978;4.498;2023-08-08T01:27:36;101442.97;;;15.72;94.63
69784;BME280;57054;51.978;4.498;2023-08-08T01:30:02;101432.47;;;15.70;94.44
69784;BME280;57054;51.978;4.498;2023-08-08T01:32:29;101441.31;;;15.69;94.73
69784;BME280;57054;51.978;4.498;2023-08-08T01:34:54;101436.03;;;15.69;94.71
69784;BME280;57054;51.978;4.498;2023-08-08T01:37:24;101430.81;;;15.68;94.87
69784;BME280;57054;51.978;4.498;2023-08-08T01:39:55;101432.69;;;15.66;94.53
69784;BME280;57054;51.978;4.498;2023-08-08T01:42:24;101429.28;;;15.64;94.33
69784;BME280;57054;51.978;4.498;2023-08-08T01:44:50;101431.09;;;15.63;94.37
69784;BME280;57054;51.978;4.498;2023-08-08T01:47:15;101429.38;;;15.62;94.27
69784;BME280;57054;51.978;4.498;2023-08-08T01:49:41;101427.59;;;15.63;94.42
69784;BME280;57054;51.978;4.498;2023-08-08T01:52:06;101435.59;;;15.61;94.37
69784;BME280;57054;51.978;4.498;2023-08-08T01:54:31;101433.03;;;15.60;93.86
69784;BME280;57054;51.978;4.498;2023-08-08T01:56:57;101421.69;;;15.58;93.80
69784;BME280;57054;51.978;4.498;2023-08-08T01:59:23;101427.91;;;15.57;93.75
69784;BME280;57054;51.978;4.498;2023-08-08T02:01:48;101427.13;;;15.54;93.79
69784;BME280;57054;51.978;4.498;2023-08-08T02:04:14;101428.94;;;15.54;93.81
69784;BME280;57054;51.978;4.498;2023-08-08T02:06:39;101421.94;;;15.53;93.75
69784;BME280;57054;51.978;4.498;2023-08-08T02:09:04;101420.16;;;15.53;93.51
69784;BME280;57054;51.978;4.498;2023-08-08T02:11:30;101419.38;;;15.51;93.31
69784;BME280;57054;51.978;4.498;2023-08-08T02:13:55;101420.31;;;15.50;93.32
69784;BME280;57054;51.978;4.498;2023-08-08T02:16:20;101407.19;;;15.49;93.18
69784;BME280;57054;51.978;4.498;2023-08-08T02:18:46;101410.84;;;15.46;93.01
69784;BME280;57054;51.978;4.498;2023-08-08T02:21:11;101418.78;;;15.46;92.95
69784;BME280;57054;51.978;4.498;2023-08-08T02:23:37;101413.56;;;15.45;93.14
69784;BME280;57054;51.978;4.498;2023-08-08T02:26:02;101425.03;;;15.44;92.75
69784;BME280;57054;51.978;4.498;2023-08-08T02:28:28;101425.19;;;15.41;92.55
69784;BME280;57054;51.978;4.498;2023-08-08T02:30:53;101415.59;;;15.40;92.96
69784;BME280;57054;51.978;4.498;2023-08-08T02:33:19;101417.38;;;15.39;92.54
69784;BME280;57054;51.978;4.498;2023-08-08T02:35:45;101420.09;;;15.38;92.34
69784;BME280;57054;51.978;4.498;2023-08-08T02:38:10;101410.47;;;15.36;92.25
69784;BME280;57054;51.978;4.498;2023-08-08T02:40:36;101411.41;;;15.35;92.33
69784;BME280;57054;51.978;4.498;2023-08-08T02:43:01;101406.22;;;15.34;92.32
69784;BME280;57054;51.978;4.498;2023-08-08T02:45:26;101409.84;;;15.31;92.09
69784;BME280;57054;51.978;4.498;2023-08-08T02:47:52;101403.72;;;15.31;91.86
69784;BME280;57054;51.978;4.498;2023-08-08T02:50:17;101402.03;;;15.30;92.20
69784;BME280;57054;51.978;4.498;2023-08-08T02:52:42;101396.81;;;15.28;91.87
69784;BME280;57054;51.978;4.498;2023-08-08T02:55:08;101397.75;;;15.27;91.71
69784;BME280;57054;51.978;4.498;2023-08-08T02:57:33;101400.47;;;15.26;91.87
69784;BME280;57054;51.978;4.498;2023-08-08T02:59:59;101404.03;;;15.25;91.92
69784;BME280;57054;51.978;4.498;2023-08-08T03:02:24;101396.19;;;15.23;91.72
69784;BME280;57054;51.978;4.498;2023-08-08T03:04:50;101392.78;;;15.21;91.59
69784;BME280;57054;51.978;4.498;2023-08-08T03:07:15;101390.22;;;15.20;91.72
69784;BME280;57054;51.978;4.498;2023-08-08T03:09:40;101394.66;;;15.19;91.53
69784;BME280;57054;51.978;4.498;2023-08-08T03:12:06;101392.94;;;15.18;91.63
69784;BME280;57054;51.978;4.498;2023-08-08T03:14:32;101393.84;;;15.17;91.36
69784;BME280;57054;51.978;4.498;2023-08-08T03:16:59;101391.31;;;15.15;91.23
69784;BME280;57054;51.978;4.498;2023-08-08T03:19:24;101394.88;;;15.14;91.20
69784;BME280;57054;51.978;4.498;2023-08-08T03:21:50;101396.69;;;15.14;91.32
69784;BME280;57054;51.978;4.498;2023-08-08T03:24:15;101402.94;;;15.11;90.83
69784;BME280;57054;51.978;4.498;2023-08-08T03:26:40;101392.56;;;15.08;90.70
69784;BME280;57054;51.978;4.498;2023-08-08T03:29:06;101400.47;;;15.08;90.46
69784;BME280;57054;51.978;4.498;2023-08-08T03:31:35;101395.34;;;15.05;90.25
69784;BME280;57054;51.978;4.498;2023-08-08T03:34:00;101392.72;;;15.05;90.23
69784;BME280;57054;51.978;4.498;2023-08-08T03:36:25;101393.75;;;15.03;90.19
69784;BME280;57054;51.978;4.498;2023-08-08T03:38:51;101387.66;;;15.01;90.00
69784;BME280;57054;51.978;4.498;2023-08-08T03:41:16;101385.13;;;14.99;90.36
69784;BME280;57054;51.978;4.498;2023-08-08T03:43:42;101382.56;;;14.97;90.19
69784;BME280;57054;51.978;4.498;2023-08-08T03:46:07;101386.97;;;14.97;90.16
69784;BME280;57054;51.978;4.498;2023-08-08T03:48:33;101375.56;;;14.96;90.32
69784;BME280;57054;51.978;4.498;2023-08-08T03:50:58;101377.34;;;14.96;90.32
69784;BME280;57054;51.978;4.498;2023-08-08T03:53:24;101369.53;;;14.94;90.22
69784;BME280;57054;51.978;4.498;2023-08-08T03:55:49;101368.69;;;14.94;90.30
69784;BME280;57054;51.978;4.498;2023-08-08T03:58:14;101370.44;;;14.93;90.46
69784;BME280;57054;51.978;4.498;2023-08-08T04:00:40;101363.53;;;14.91;90.35
69784;BME280;57054;51.978;4.498;2023-08-08T04:03:13;101367.97;;;14.90;90.50
69784;BME280;57054;51.978;4.498;2023-08-08T04:05:39;101367.97;;;14.90;90.25
69784;BME280;57054;51.978;4.498;2023-08-08T04:08:05;101365.41;;;14.89;90.33
69784;BME280;57054;51.978;4.498;2023-08-08T04:10:30;101365.47;;;14.87;90.16
69784;BME280;57054;51.978;4.498;2023-08-08T04:12:55;101368.19;;;14.86;90.16
69784;BME280;57054;51.978;4.498;2023-08-08T04:15:21;101376.97;;;14.86;90.20
69784;BME280;57054;51.978;4.498;2023-08-08T04:17:46;101364.78;;;14.84;90.25
69784;BME280;57054;51.978;4.498;2023-08-08T04:20:11;101366.56;;;14.83;90.25
69784;BME280;57054;51.978;4.498;2023-08-08T04:22:37;101367.50;;;14.82;90.23
69784;BME280;57054;51.978;4.498;2023-08-08T04:25:04;101364.00;;;14.82;90.17
69784;BME280;57054;51.978;4.498;2023-08-08T04:27:29;101368.50;;;14.80;90.02
69784;BME280;57054;51.978;4.498;2023-08-08T04:29:55;101370.31;;;14.79;90.00
69784;BME280;57054;51.978;4.498;2023-08-08T04:32:20;101368.59;;;14.78;89.95
69784;BME280;57054;51.978;4.498;2023-08-08T04:34:45;101368.66;;;14.76;90.15
69784;BME280;57054;51.978;4.498;2023-08-08T04:37:11;101367.03;;;14.74;89.95
69784;BME280;57054;51.978;4.498;2023-08-08T04:39:36;101366.16;;;14.73;89.88
69784;BME280;57054;51.978;4.498;2023-08-08T04:42:02;101374.19;;;14.72;89.72
69784;BME280;57054;51.978;4.498;2023-08-08T04:44:27;101378.69;;;14.70;89.74
69784;BME280;57054;51.978;4.498;2023-08-08T04:46:52;101377.78;;;14.69;89.76
69784;BME280;57054;51.978;4.498;2023-08-08T04:49:18;101376.94;;;14.69;89.53
69784;BME280;57054;51.978;4.498;2023-08-08T04:51:43;101378.75;;;14.68;89.52
69784;BME280;57054;51.978;4.498;2023-08-08T04:54:08;101381.44;;;14.67;89.92
69784;BME280;57054;51.978;4.498;2023-08-08T04:56:34;101371.81;;;14.66;89.88
69784;BME280;57054;51.978;4.498;2023-08-08T04:58:59;101370.06;;;14.66;89.79
69784;BME280;57054;51.978;4.498;2023-08-08T05:01:25;101381.53;;;14.65;89.75
69784;BME280;57054;51.978;4.498;2023-08-08T05:03:50;101382.38;;;14.66;89.76
69784;BME280;57054;51.978;4.498;2023-08-08T05:06:16;101384.22;;;14.64;89.83
69784;BME280;57054;51.978;4.498;2023-08-08T05:08:41;101379.91;;;14.63;90.17
69784;BME280;57054;51.978;4.498;2023-08-08T05:11:07;101383.38;;;14.63;90.23
69784;BME280;57054;51.978;4.498;2023-08-08T05:13:32;101383.38;;;14.63;90.24
69784;BME280;57054;51.978;4.498;2023-08-08T05:15:58;101382.59;;;14.61;90.07
69784;BME280;57054;51.978;4.498;2023-08-08T05:18:23;101381.66;;;14.62;90.12
69784;BME280;57054;51.978;4.498;2023-08-08T05:20:49;101380.81;;;14.62;90.34
69784;BME280;57054;51.978;4.498;2023-08-08T05:23:14;101384.28;;;14.62;90.20
69784;BME280;57054;51.978;4.498;2023-08-08T05:25:40;101377.34;;;14.61;90.06
69784;BME280;57054;51.978;4.498;2023-08-08T05:28:05;101386.09;;;14.62;90.10
69784;BME280;57054;51.978;4.498;2023-08-08T05:30:31;101388.72;;;14.62;90.26
69784;BME280;57054;51.978;4.498;2023-08-08T05:32:56;101388.78;;;14.60;90.46
69784;BME280;57054;51.978;4.498;2023-08-08T05:35:22;101394.00;;;14.62;90.20
69784;BME280;57054;51.978;4.498;2023-08-08T05:37:47;101392.19;;;14.62;90.39
69784;BME280;57054;51.978;4.498;2023-08-08T05:40:12;101390.50;;;14.61;90.45
69784;BME280;57054;51.978;4.498;2023-08-08T05:42:38;101387.00;;;14.61;90.33
69784;BME280;57054;51.978;4.498;2023-08-08T05:45:04;101397.47;;;14.62;90.59
69784;BME280;57054;51.978;4.498;2023-08-08T05:47:30;101398.44;;;14.61;90.38
69784;BME280;57054;51.978;4.498;2023-08-08T05:49:55;101400.19;;;14.61;90.47
69784;BME280;57054;51.978;4.498;2023-08-08T05:52:21;101398.50;;;14.59;90.18
69784;BME280;57054;51.978;4.498;2023-08-08T05:54:47;101399.34;;;14.60;90.22
69784;BME280;57054;51.978;4.498;2023-08-08T05:57:12;101398.50;;;14.59;89.80
69784;BME280;57054;51.978;4.498;2023-08-08T05:59:37;101401.97;;;14.60;89.92
69784;BME280;57054;51.978;4.498;2023-08-08T06:02:03;101401.19;;;14.58;90.08
69784;BME280;57054;51.978;4.498;2023-08-08T06:04:28;101397.66;;;14.59;90.18
69784;BME280;57054;51.978;4.498;2023-08-08T06:06:54;101399.41;;;14.58;90.10
69784;BME280;57054;51.978;4.498;2023-08-08T06:09:19;101401.19;;;14.58;89.76
69784;BME280;57054;51.978;4.498;2023-08-08T06:11:45;101404.69;;;14.58;89.78
69784;BME280;57054;51.978;4.498;2023-08-08T06:14:10;101404.69;;;14.58;89.70
69784;BME280;57054;51.978;4.498;2023-08-08T06:16:35;101408.25;;;14.57;89.70
69784;BME280;57054;51.978;4.498;2023-08-08T06:19:01;101405.63;;;14.57;89.85
69784;BME280;57054;51.978;4.498;2023-08-08T06:21:26;101414.41;;;14.56;89.80
69784;BME280;57054;51.978;4.498;2023-08-08T06:23:52;101409.13;;;14.56;89.43
69784;BME280;57054;51.978;4.498;2023-08-08T06:26:20;101409.22;;;14.55;88.90
69784;BME280;57054;51.978;4.498;2023-08-08T06:28:46;101411.84;;;14.55;88.42
69784;BME280;57054;51.978;4.498;2023-08-08T06:31:12;101413.63;;;14.54;88.39
69784;BME280;57054;51.978;4.498;2023-08-08T06:33:38;101405.72;;;14.54;88.88
69784;BME280;57054;51.978;4.498;2023-08-08T06:36:03;101410.16;;;14.54;88.73
69784;BME280;57054;51.978;4.498;2023-08-08T06:38:29;101410.16;;;14.54;88.53
69784;BME280;57054;51.978;4.498;2023-08-08T06:40:59;101402.25;;;14.54;88.20
69784;BME280;57054;51.978;4.498;2023-08-08T06:43:24;101401.38;;;14.53;87.65
69784;BME280;57054;51.978;4.498;2023-08-08T06:45:50;101397.81;;;14.54;87.73
69784;BME280;57054;51.978;4.498;2023-08-08T06:48:15;101402.19;;;14.55;87.44
69784;BME280;57054;51.978;4.498;2023-08-08T06:50:40;101406.50;;;14.56;87.69
69784;BME280;57054;51.978;4.498;2023-08-08T06:53:06;101408.25;;;14.57;87.60
69784;BME280;57054;51.978;4.498;2023-08-08T06:55:31;101409.94;;;14.58;87.40
69784;BME280;57054;51.978;4.498;2023-08-08T06:57:56;101405.63;;;14.57;86.67
69784;BME280;57054;51.978;4.498;2023-08-08T07:00:22;101406.47;;;14.58;86.90
69784;BME280;57054;51.978;4.498;2023-08-08T07:02:47;101402.09;;;14.57;86.85
69784;BME280;57054;51.978;4.498;2023-08-08T07:05:13;101406.47;;;14.58;86.64
69784;BME280;57054;51.978;4.498;2023-08-08T07:07:38;101415.25;;;14.57;86.72
69784;BME280;57054;51.978;4.498;2023-08-08T07:10:04;101409.94;;;14.58;86.71
69784;BME280;57054;51.978;4.498;2023-08-08T07:12:30;101408.25;;;14.57;86.99
69784;BME280;57054;51.978;4.498;2023-08-08T07:14:55;101408.25;;;14.57;86.56
69784;BME280;57054;51.978;4.498;2023-08-08T07:17:21;101414.31;;;14.59;86.65
69784;BME280;57054;51.978;4.498;2023-08-08T07:19:46;101415.16;;;14.60;86.58
69784;BME280;57054;51.978;4.498;2023-08-08T07:22:12;101411.59;;;14.61;86.49
69784;BME280;57054;51.978;4.498;2023-08-08T07:24:37;101403.63;;;14.63;86.03
69784;BME280;57054;51.978;4.498;2023-08-08T07:27:04;101411.44;;;14.64;86.26
69784;BME280;57054;51.978;4.498;2023-08-08T07:29:30;101399.97;;;14.65;86.14
69784;BME280;57054;51.978;4.498;2023-08-08T07:31:57;101399.06;;;14.66;85.74
69784;BME280;57054;51.978;4.498;2023-08-08T07:34:23;101406.03;;;14.67;85.48
69784;BME280;57054;51.978;4.498;2023-08-08T07:36:48;101395.41;;;14.69;85.03
69784;BME280;57054;51.978;4.498;2023-08-08T07:39:14;101392.69;;;14.70;84.82
69784;BME280;57054;51.978;4.498;2023-08-08T07:41:40;101392.63;;;14.72;84.71
69784;BME280;57054;51.978;4.498;2023-08-08T07:44:05;101394.31;;;14.73;84.70
69784;BME280;57054;51.978;4.498;2023-08-08T07:46:31;101388.13;;;14.74;84.85
69784;BME280;57054;51.978;4.498;2023-08-08T07:48:57;101395.09;;;14.75;84.83
69784;BME280;57054;51.978;4.498;2023-08-08T07:51:25;101397.59;;;14.78;84.82
69784;BME280;57054;51.978;4.498;2023-08-08T07:53:50;101392.31;;;14.78;84.59
69784;BME280;57054;51.978;4.498;2023-08-08T07:56:15;101390.44;;;14.80;84.33
69784;BME280;57054;51.978;4.498;2023-08-08T07:58:41;101401.78;;;14.82;84.40
69784;BME280;57054;51.978;4.498;2023-08-08T08:01:06;101399.91;;;14.84;84.38
69784;BME280;57054;51.978;4.498;2023-08-08T08:03:31;101395.44;;;14.86;84.37
69784;BME280;57054;51.978;4.498;2023-08-08T08:05:57;101404.97;;;14.89;84.33
69784;BME280;57054;51.978;4.498;2023-08-08T08:08:22;101402.25;;;14.90;84.53
69784;BME280;57054;51.978;4.498;2023-08-08T08:10:49;101391.63;;;14.92;84.72
69784;BME280;57054;51.978;4.498;2023-08-08T08:13:16;101397.69;;;14.94;84.88
69784;BME280;57054;51.978;4.498;2023-08-08T08:15:41;101400.16;;;14.97;84.88
69784;BME280;57054;51.978;4.498;2023-08-08T08:18:07;101404.50;;;14.98;84.86
69784;BME280;57054;51.978;4.498;2023-08-08T08:20:32;101393.81;;;15.01;84.50
69784;BME280;57054;51.978;4.498;2023-08-08T08:22:57;101398.13;;;15.02;84.33
69784;BME280;57054;51.978;4.498;2023-08-08T08:25:23;101387.50;;;15.04;83.93
69784;BME280;57054;51.978;4.498;2023-08-08T08:27:48;101394.44;;;15.06;83.79
69784;BME280;57054;51.978;4.498;2023-08-08T08:30:14;101399.72;;;15.06;83.92
69784;BME280;57054;51.978;4.498;2023-08-08T08:32:41;101395.22;;;15.08;83.82
69784;BME280;57054;51.978;4.498;2023-08-08T08:35:07;101406.53;;;15.10;84.15
69784;BME280;57054;51.978;4.498;2023-08-08T08:37:33;101399.38;;;15.12;83.81
69784;BME280;57054;51.978;4.498;2023-08-08T08:39:59;101393.19;;;15.13;83.26
69784;BME280;57054;51.978;4.498;2023-08-08T08:42:26;101392.31;;;15.13;82.11
69784;BME280;57054;51.978;4.498;2023-08-08T08:44:57;101408.06;;;15.14;81.60
69784;BME280;57054;51.978;4.498;2023-08-08T08:47:24;101401.94;;;15.14;80.61
69784;BME280;57054;51.978;4.498;2023-08-08T08:49:51;101410.72;;;15.14;80.54
69784;BME280;57054;51.978;4.498;2023-08-08T08:52:17;101407.22;;;15.14;80.15
69784;BME280;57054;51.978;4.498;2023-08-08T08:54:42;101406.28;;;15.15;79.94
69784;BME280;57054;51.978;4.498;2023-08-08T08:57:08;101409.69;;;15.17;79.76
69784;BME280;57054;51.978;4.498;2023-08-08T08:59:33;101403.50;;;15.18;79.92
69784;BME280;57054;51.978;4.498;2023-08-08T09:01:59;101409.69;;;15.17;79.18
69784;BME280;57054;51.978;4.498;2023-08-08T09:04:25;101419.25;;;15.20;79.47
69784;BME280;57054;51.978;4.498;2023-08-08T09:06:52;101420.88;;;15.22;80.28
69784;BME280;57054;51.978;4.498;2023-08-08T09:09:18;101417.25;;;15.25;80.16
69784;BME280;57054;51.978;4.498;2023-08-08T09:11:47;101422.34;;;15.28;80.11
69784;BME280;57054;51.978;4.498;2023-08-08T09:14:21;101424.06;;;15.29;79.70
69784;BME280;57054;51.978;4.498;2023-08-08T09:16:47;101421.41;;;15.29;79.94
69784;BME280;57054;51.978;4.498;2023-08-08T09:19:14;101409.94;;;15.30;80.13
69784;BME280;57054;51.978;4.498;2023-08-08T09:21:39;101420.41;;;15.31;80.25
69784;BME280;57054;51.978;4.498;2023-08-08T09:24:05;101422.13;;;15.32;80.52
69784;BME280;57054;51.978;4.498;2023-08-08T09:26:30;101430.81;;;15.34;80.34
69784;BME280;57054;51.978;4.498;2023-08-08T09:28:56;101421.00;;;15.36;81.03
69784;BME280;57054;51.978;4.498;2023-08-08T09:31:24;101413.94;;;15.37;80.97
69784;BME280;57054;51.978;4.498;2023-08-08T09:33:50;101420.94;;;15.38;81.04
69784;BME280;57054;51.978;4.498;2023-08-08T09:36:17;101426.16;;;15.40;81.14
69784;BME280;57054;51.978;4.498;2023-08-08T09:38:42;101426.06;;;15.41;81.06
69784;BME280;57054;51.978;4.498;2023-08-08T09:41:08;101433.81;;;15.44;81.58
69784;BME280;57054;51.978;4.498;2023-08-08T09:43:33;101432.03;;;15.45;81.72
69784;BME280;57054;51.978;4.498;2023-08-08T09:45:59;101434.63;;;15.46;81.13
69784;BME280;57054;51.978;4.498;2023-08-08T09:48:32;101435.38;;;15.48;81.30
69784;BME280;57054;51.978;4.498;2023-08-08T09:51:01;101428.31;;;15.49;81.26
69784;BME280;57054;51.978;4.498;2023-08-08T09:53:27;101433.59;;;15.49;80.95
69784;BME280;57054;51.978;4.498;2023-08-08T09:55:56;101436.22;;;15.49;80.99
69784;BME280;57054;51.978;4.498;2023-08-08T09:58:22;101434.44;;;15.49;80.85
69784;BME280;57054;51.978;4.498;2023-08-08T10:00:50;101438.72;;;15.52;81.05
69784;BME280;57054;51.978;4.498;2023-08-08T10:03:18;101431.56;;;15.54;80.88
69784;BME280;57054;51.978;4.498;2023-08-08T10:05:44;101426.28;;;15.54;80.64
69784;BME280;57054;51.978;4.498;2023-08-08T10:08:09;101438.53;;;15.55;81.10
69784;BME280;57054;51.978;4.498;2023-08-08T10:10:36;101421.69;;;15.58;81.40
69784;BME280;57054;51.978;4.498;2023-08-08T10:13:02;101427.75;;;15.60;81.40
69784;BME280;57054;51.978;4.498;2023-08-08T10:15:28;101423.31;;;15.60;81.52
69784;BME280;57054;51.978;4.498;2023-08-08T10:17:56;101431.09;;;15.63;81.67
69784;BME280;57054;51.978;4.498;2023-08-08T10:20:24;101435.34;;;15.66;81.53
69784;BME280;57054;51.978;4.498;2023-08-08T10:22:52;101437.91;;;15.67;81.05
69784;BME280;57054;51.978;4.498;2023-08-08T10:25:24;101430.81;;;15.68;80.80
69784;BME280;57054;51.978;4.498;2023-08-08T10:28:00;101429.06;;;15.68;80.53
69784;BME280;57054;51.978;4.498;2023-08-08T10:30:26;101438.66;;;15.69;80.38
69784;BME280;57054;51.978;4.498;2023-08-08T10:32:52;101422.81;;;15.69;80.77
69784;BME280;57054;51.978;4.498;2023-08-08T10:35:17;101427.13;;;15.72;81.03
69784;BME280;57054;51.978;4.498;2023-08-08T10:37:52;101426.97;;;15.75;80.45
69784;BME280;57054;51.978;4.498;2023-08-08T10:40:19;101433.97;;;15.76;80.08
69784;BME280;57054;51.978;4.498;2023-08-08T10:42:46;101431.31;;;15.76;79.21
69784;BME280;57054;51.978;4.498;2023-08-08T10:45:13;101428.69;;;15.76;79.45
69784;BME280;57054;51.978;4.498;2023-08-08T10:47:40;101436.44;;;15.79;79.87
69784;BME280;57054;51.978;4.498;2023-08-08T10:50:15;101432.84;;;15.80;79.87
69784;BME280;57054;51.978;4.498;2023-08-08T10:55:22;101431.84;;;15.83;80.18
69784;BME280;57054;51.978;4.498;2023-08-08T10:57:54;101431.75;;;15.84;80.36
69784;BME280;57054;51.978;4.498;2023-08-08T11:00:24;101440.56;;;15.85;80.76
69784;BME280;57054;51.978;4.498;2023-08-08T11:02:50;101437.84;;;15.86;80.35
69784;BME280;57054;51.978;4.498;2023-08-08T11:05:16;101430.69;;;15.88;80.93
69784;BME280;57054;51.978;4.498;2023-08-08T11:07:42;101436.72;;;15.90;80.93
69784;BME280;57054;51.978;4.498;2023-08-08T11:10:08;101442.63;;;15.96;81.43
69784;BME280;57054;51.978;4.498;2023-08-08T11:12:34;101431.03;;;15.98;81.51
69784;BME280;57054;51.978;4.498;2023-08-08T11:14:59;101433.50;;;16.01;81.26
69784;BME280;57054;51.978;4.498;2023-08-08T11:17:24;101435.97;;;16.04;80.74
69784;BME280;57054;51.978;4.498;2023-08-08T11:19:50;101441.16;;;16.06;80.68
69784;BME280;57054;51.978;4.498;2023-08-08T11:22:16;101437.59;;;16.07;80.23
69784;BME280;57054;51.978;4.498;2023-08-08T11:24:41;101429.59;;;16.08;80.26
69784;BME280;57054;51.978;4.498;2023-08-08T11:27:07;101428.66;;;16.09;80.27
69784;BME280;57054;51.978;4.498;2023-08-08T11:29:32;101422.50;;;16.09;80.18
69784;BME280;57054;51.978;4.498;2023-08-08T11:32:01;101433.00;;;16.10;80.39
69784;BME280;57054;51.978;4.498;2023-08-08T11:34:30;101427.72;;;16.10;80.32
69784;BME280;57054;51.978;4.498;2023-08-08T11:36:58;101421.59;;;16.10;80.04
69784;BME280;57054;51.978;4.498;2023-08-08T11:39:24;101428.56;;;16.11;80.59
69784;BME280;57054;51.978;4.498;2023-08-08T11:41:49;101419.72;;;16.12;80.72
69784;BME280;57054;51.978;4.498;2023-08-08T11:44:15;101422.28;;;16.14;80.24
69784;BME280;57054;51.978;4.498;2023-08-08T11:46:45;101423.03;;;16.16;80.41
69784;BME280;57054;51.978;4.498;2023-08-08T11:49:13;101423.81;;;16.18;80.73
69784;BME280;57054;51.978;4.498;2023-08-08T11:51:39;101433.25;;;16.22;81.17
69784;BME280;57054;51.978;4.498;2023-08-08T11:54:04;101429.50;;;16.26;81.24
69784;BME280;57054;51.978;4.498;2023-08-08T11:56:32;101436.50;;;16.27;81.03
69784;BME280;57054;51.978;4.498;2023-08-08T11:58:59;101426.63;;;16.30;81.11
69784;BME280;57054;51.978;4.498;2023-08-08T12:01:25;101441.44;;;16.33;81.29
69784;BME280;57054;51.978;4.498;2023-08-08T12:03:51;101437.03;;;16.34;81.19
69784;BME280;57054;51.978;4.498;2023-08-08T12:06:16;101433.44;;;16.35;80.81
69784;BME280;57054;51.978;4.498;2023-08-08T12:08:43;101424.50;;;16.37;80.75
69784;BME280;57054;51.978;4.498;2023-08-08T12:11:10;101410.34;;;16.38;80.67
69784;BME280;57054;51.978;4.498;2023-08-08T12:13:41;101415.53;;;16.40;80.97
69784;BME280;57054;51.978;4.498;2023-08-08T12:16:09;101418.88;;;16.43;80.76
69784;BME280;57054;51.978;4.498;2023-08-08T12:18:35;101428.41;;;16.46;80.92
69784;BME280;57054;51.978;4.498;2023-08-08T12:21:03;101419.38;;;16.50;80.92
69784;BME280;57054;51.978;4.498;2023-08-08T12:23:28;101429.84;;;16.51;80.81
69784;BME280;57054;51.978;4.498;2023-08-08T12:25:54;101418.19;;;16.56;80.55
69784;BME280;57054;51.978;4.498;2023-08-08T12:28:19;101407.41;;;16.59;79.97
69784;BME280;57054;51.978;4.498;2023-08-08T12:30:44;101410.94;;;16.59;78.97
69784;BME280;57054;51.978;4.498;2023-08-08T12:33:10;101416.78;;;16.64;79.11
69784;BME280;57054;51.978;4.498;2023-08-08T12:35:35;101417.56;;;16.66;78.98
69784;BME280;57054;51.978;4.498;2023-08-08T12:38:01;101422.66;;;16.69;79.01
69784;BME280;57054;51.978;4.498;2023-08-08T12:40:27;101413.81;;;16.70;79.22
69784;BME280;57054;51.978;4.498;2023-08-08T12:42:53;101424.28;;;16.72;78.46
69784;BME280;57054;51.978;4.498;2023-08-08T12:45:18;101427.69;;;16.74;78.12
69784;BME280;57054;51.978;4.498;2023-08-08T12:47:44;101444.41;;;16.75;77.63
69784;BME280;57054;51.978;4.498;2023-08-08T12:50:09;101432.81;;;16.77;77.29
69784;BME280;57054;51.978;4.498;2023-08-08T12:52:35;101431.03;;;16.78;77.29